sensor_id;sensor_type;location;lat;lon;timestamp;P1;durP1;ratioP1;P2;durP2;ratioP2
38940;SDS011;43236;47.208;7.518;2023-04-06T00:00:55;6.72;;;3.20;;
38940;SDS011;43236;47.208;7.518;2023-04-06T00:03:42;7.32;;;3.42;;
38940;SDS011;43236;47.208;7.518;2023-04-06T00:06:29;7.80;;;3.20;;
38940;SDS011;43236;47.208;7.518;2023-04-06T00:09:17;7.90;;;3.20;;
38940;SDS011;43236;47.208;7.518;2023-04-06T00:12:04;7.10;;;3.67;;
38940;SDS011;43236;47.208;7.518;2023-04-06T00:14:53;8.18;;;3.92;;
38940;SDS011;43236;47.208;7.518;2023-04-06T00:17:40;8.48;;;4.25;;
38940;SDS011;43236;47.208;7.518;2023-04-06T00:20:27;6.97;;;3.60;;
38940;SDS011;43236;47.208;7.518;2023-04-06T00:23:14;11.82;;;4.18;;
38940;SDS011;43236;47.208;7.518;2023-04-06T00:26:01;10.93;;;4.55;;
38940;SDS011;43236;47.208;7.518;2023-04-06T00:28:48;8.13;;;4.40;;
38940;SDS011;43236;47.208;7.518;2023-04-06T00:31:38;12.10;;;4.00;;
38940;SDS011;43236;47.208;7.518;2023-04-06T00:34:25;9.57;;;4.20;;
38940;SDS011;43236;47.208;7.518;2023-04-06T00:37:12;8.55;;;4.28;;
38940;SDS011;43236;47.208;7.518;2023-04-06T00:39:59;11.23;;;4.60;;
38940;SDS011;43236;47.208;7.518;2023-04-06T00:42:47;10.07;;;4.32;;
38940;SDS011;43236;47.208;7.518;2023-04-06T00:45:34;6.93;;;3.92;;
38940;SDS011;43236;47.208;7.518;2023-04-06T00:48:23;9.20;;;4.38;;
38940;SDS011;43236;47.208;7.518;2023-04-06T00:51:10;10.43;;;4.35;;
38940;SDS011;43236;47.208;7.518;2023-04-06T00:53:57;6.65;;;3.75;;
38940;SDS011;43236;47.208;7.518;2023-04-06T00:56:44;10.35;;;4.20;;
38940;SDS011;43236;47.208;7.518;2023-04-06T00:59:31;9.38;;;4.30;;
38940;SDS011;43236;47.208;7.518;2023-04-06T01:02:19;6.63;;;3.78;;
38940;SDS011;43236;47.208;7.518;2023-04-06T01:05:08;9.98;;;4.38;;
38940;SDS011;43236;47.208;7.518;2023-04-06T01:07:55;9.70;;;4.32;;
38940;SDS011;43236;47.208;7.518;2023-04-06T01:10:42;10.65;;;4.80;;
38940;SDS011;43236;47.208;7.518;2023-04-06T01:13:29;9.43;;;4.60;;
38940;SDS011;43236;47.208;7.518;2023-04-06T01:16:16;9.15;;;4.53;;
38940;SDS011;43236;47.208;7.518;2023-04-06T01:19:06;10.70;;;5.63;;
38940;SDS011;43236;47.208;7.518;2023-04-06T01:21:56;12.45;;;5.07;;
38940;SDS011;43236;47.208;7.518;2023-04-06T01:24:44;12.80;;;4.95;;
38940;SDS011;43236;47.208;7.518;2023-04-06T01:27:32;12.20;;;5.43;;
38940;SDS011;43236;47.208;7.518;2023-04-06T01:30:19;10.15;;;5.32;;
38940;SDS011;43236;47.208;7.518;2023-04-06T01:33:06;13.55;;;5.93;;
38940;SDS011;43236;47.208;7.518;2023-04-06T01:35:54;12.98;;;5.55;;
38940;SDS011;43236;47.208;7.518;2023-04-06T01:38:41;10.90;;;5.30;;
38940;SDS011;43236;47.208;7.518;2023-04-06T01:41:29;12.50;;;5.68;;
38940;SDS011;43236;47.208;7.518;2023-04-06T01:44:16;14.88;;;6.05;;
38940;SDS011;43236;47.208;7.518;2023-04-06T01:47:04;12.63;;;5.82;;
38940;SDS011;43236;47.208;7.518;2023-04-06T01:49:52;12.35;;;5.55;;
38940;SDS011;43236;47.208;7.518;2023-04-06T01:52:39;14.52;;;5.72;;
38940;SDS011;43236;47.208;7.518;2023-04-06T01:55:27;14.38;;;5.60;;
38940;SDS011;43236;47.208;7.518;2023-04-06T01:58:15;11.05;;;4.95;;
38940;SDS011;43236;47.208;7.518;2023-04-06T02:01:02;12.80;;;5.20;;
38940;SDS011;43236;47.208;7.518;2023-04-06T02:03:50;14.88;;;5.75;;
38940;SDS011;43236;47.208;7.518;2023-04-06T02:06:37;15.00;;;6.70;;
38940;SDS011;43236;47.208;7.518;2023-04-06T02:09:24;11.40;;;5.60;;
38940;SDS011;43236;47.208;7.518;2023-04-06T02:12:11;20.55;;;6.55;;
38940;SDS011;43236;47.208;7.518;2023-04-06T02:14:59;10.73;;;5.70;;
38940;SDS011;43236;47.208;7.518;2023-04-06T02:17:46;15.55;;;6.25;;
38940;SDS011;43236;47.208;7.518;2023-04-06T02:20:34;13.88;;;6.20;;
38940;SDS011;43236;47.208;7.518;2023-04-06T02:23:21;14.18;;;6.18;;
38940;SDS011;43236;47.208;7.518;2023-04-06T02:26:08;17.90;;;5.95;;
38940;SDS011;43236;47.208;7.518;2023-04-06T02:28:55;16.13;;;5.70;;
38940;SDS011;43236;47.208;7.518;2023-04-06T02:31:43;11.18;;;5.43;;
38940;SDS011;43236;47.208;7.518;2023-04-06T02:34:31;11.70;;;5.22;;
38940;SDS011;43236;47.208;7.518;2023-04-06T02:37:18;15.55;;;5.45;;
38940;SDS011;43236;47.208;7.518;2023-04-06T02:40:05;10.93;;;5.50;;
38940;SDS011;43236;47.208;7.518;2023-04-06T02:42:53;9.25;;;4.88;;
38940;SDS011;43236;47.208;7.518;2023-04-06T02:45:40;15.13;;;5.47;;
38940;SDS011;43236;47.208;7.518;2023-04-06T02:48:29;12.30;;;5.00;;
38940;SDS011;43236;47.208;7.518;2023-04-06T02:51:16;12.27;;;4.70;;
38940;SDS011;43236;47.208;7.518;2023-04-06T02:54:03;11.07;;;5.35;;
38940;SDS011;43236;47.208;7.518;2023-04-06T02:56:50;13.02;;;5.60;;
38940;SDS011;43236;47.208;7.518;2023-04-06T02:59:37;10.85;;;5.60;;
38940;SDS011;43236;47.208;7.518;2023-04-06T03:02:24;12.60;;;5.55;;
38940;SDS011;43236;47.208;7.518;2023-04-06T03:05:13;9.63;;;5.32;;
38940;SDS011;43236;47.208;7.518;2023-04-06T03:08:00;12.35;;;6.18;;
38940;SDS011;43236;47.208;7.518;2023-04-06T03:10:47;14.30;;;5.43;;
38940;SDS011;43236;47.208;7.518;2023-04-06T03:13:35;14.50;;;5.70;;
38940;SDS011;43236;47.208;7.518;2023-04-06T03:16:23;11.57;;;5.95;;
38940;SDS011;43236;47.208;7.518;2023-04-06T03:19:11;11.75;;;5.70;;
38940;SDS011;43236;47.208;7.518;2023-04-06T03:21:59;9.45;;;5.20;;
38940;SDS011;43236;47.208;7.518;2023-04-06T03:24:46;10.75;;;5.15;;
38940;SDS011;43236;47.208;7.518;2023-04-06T03:27:33;12.13;;;5.57;;
38940;SDS011;43236;47.208;7.518;2023-04-06T03:30:20;11.20;;;5.60;;
38940;SDS011;43236;47.208;7.518;2023-04-06T03:33:08;14.55;;;5.60;;
38940;SDS011;43236;47.208;7.518;2023-04-06T03:35:55;11.00;;;5.07;;
38940;SDS011;43236;47.208;7.518;2023-04-06T03:38:43;16.45;;;6.45;;
38940;SDS011;43236;47.208;7.518;2023-04-06T03:41:30;12.82;;;6.05;;
38940;SDS011;43236;47.208;7.518;2023-04-06T03:44:18;10.02;;;4.78;;
38940;SDS011;43236;47.208;7.518;2023-04-06T03:47:05;9.93;;;5.60;;
38940;SDS011;43236;47.208;7.518;2023-04-06T03:49:52;13.45;;;5.10;;
38940;SDS011;43236;47.208;7.518;2023-04-06T03:52:41;10.30;;;5.35;;
38940;SDS011;43236;47.208;7.518;2023-04-06T03:55:29;11.50;;;5.13;;
38940;SDS011;43236;47.208;7.518;2023-04-06T03:58:16;11.35;;;5.45;;
38940;SDS011;43236;47.208;7.518;2023-04-06T04:01:03;12.57;;;5.82;;
38940;SDS011;43236;47.208;7.518;2023-04-06T04:03:51;13.70;;;5.93;;
38940;SDS011;43236;47.208;7.518;2023-04-06T04:06:38;12.07;;;5.57;;
38940;SDS011;43236;47.208;7.518;2023-04-06T04:09:25;11.20;;;5.50;;
38940;SDS011;43236;47.208;7.518;2023-04-06T04:12:13;12.80;;;5.70;;
38940;SDS011;43236;47.208;7.518;2023-04-06T04:15:02;16.52;;;5.72;;
38940;SDS011;43236;47.208;7.518;2023-04-06T04:17:49;10.77;;;5.80;;
38940;SDS011;43236;47.208;7.518;2023-04-06T04:20:37;10.55;;;5.38;;
38940;SDS011;43236;47.208;7.518;2023-04-06T04:23:24;11.95;;;5.78;;
38940;SDS011;43236;47.208;7.518;2023-04-06T04:26:11;12.45;;;5.43;;
38940;SDS011;43236;47.208;7.518;2023-04-06T04:28:59;13.23;;;5.78;;
38940;SDS011;43236;47.208;7.518;2023-04-06T04:31:47;13.15;;;5.63;;
38940;SDS011;43236;47.208;7.518;2023-04-06T04:34:34;18.95;;;5.70;;
38940;SDS011;43236;47.208;7.518;2023-04-06T04:37:21;11.88;;;5.38;;
38940;SDS011;43236;47.208;7.518;2023-04-06T04:40:09;13.32;;;5.63;;
38940;SDS011;43236;47.208;7.518;2023-04-06T04:42:56;13.27;;;5.57;;
38940;SDS011;43236;47.208;7.518;2023-04-06T04:45:45;15.18;;;6.10;;
38940;SDS011;43236;47.208;7.518;2023-04-06T04:48:32;10.98;;;5.30;;
38940;SDS011;43236;47.208;7.518;2023-04-06T04:51:19;15.35;;;5.40;;
38940;SDS011;43236;47.208;7.518;2023-04-06T04:54:06;13.00;;;5.80;;
38940;SDS011;43236;47.208;7.518;2023-04-06T04:56:53;11.65;;;5.63;;
38940;SDS011;43236;47.208;7.518;2023-04-06T04:59:42;13.25;;;6.30;;
38940;SDS011;43236;47.208;7.518;2023-04-06T05:02:31;18.88;;;5.90;;
38940;SDS011;43236;47.208;7.518;2023-04-06T05:05:18;12.52;;;5.88;;
38940;SDS011;43236;47.208;7.518;2023-04-06T05:08:05;12.07;;;5.82;;
38940;SDS011;43236;47.208;7.518;2023-04-06T05:10:52;10.88;;;5.32;;
38940;SDS011;43236;47.208;7.518;2023-04-06T05:13:39;11.13;;;5.55;;
38940;SDS011;43236;47.208;7.518;2023-04-06T05:16:26;12.50;;;6.40;;
38940;SDS011;43236;47.208;7.518;2023-04-06T05:19:15;13.00;;;6.43;;
38940;SDS011;43236;47.208;7.518;2023-04-06T05:22:02;15.48;;;7.68;;
38940;SDS011;43236;47.208;7.518;2023-04-06T05:24:49;17.35;;;6.85;;
38940;SDS011;43236;47.208;7.518;2023-04-06T05:27:36;12.15;;;5.97;;
38940;SDS011;43236;47.208;7.518;2023-04-06T05:30:24;16.65;;;6.57;;
38940;SDS011;43236;47.208;7.518;2023-04-06T05:33:11;11.25;;;5.63;;
38940;SDS011;43236;47.208;7.518;2023-04-06T05:36:00;15.77;;;6.35;;
38940;SDS011;43236;47.208;7.518;2023-04-06T05:38:49;14.15;;;5.75;;
38940;SDS011;43236;47.208;7.518;2023-04-06T05:41:38;17.33;;;6.20;;
38940;SDS011;43236;47.208;7.518;2023-04-06T05:44:25;11.57;;;6.57;;
38940;SDS011;43236;47.208;7.518;2023-04-06T05:47:12;11.38;;;6.28;;
38940;SDS011;43236;47.208;7.518;2023-04-06T05:49:59;11.55;;;5.63;;
38940;SDS011;43236;47.208;7.518;2023-04-06T05:52:48;10.55;;;5.50;;
38940;SDS011;43236;47.208;7.518;2023-04-06T05:55:35;12.18;;;6.13;;
38940;SDS011;43236;47.208;7.518;2023-04-06T05:58:22;10.80;;;5.28;;
38940;SDS011;43236;47.208;7.518;2023-04-06T06:01:09;11.43;;;5.47;;
38940;SDS011;43236;47.208;7.518;2023-04-06T06:03:56;10.93;;;5.35;;
38940;SDS011;43236;47.208;7.518;2023-04-06T06:06:43;10.48;;;5.78;;
38940;SDS011;43236;47.208;7.518;2023-04-06T06:09:32;14.27;;;5.45;;
38940;SDS011;43236;47.208;7.518;2023-04-06T06:12:19;9.98;;;5.05;;
38940;SDS011;43236;47.208;7.518;2023-04-06T06:15:06;11.55;;;5.75;;
38940;SDS011;43236;47.208;7.518;2023-04-06T06:17:54;13.60;;;5.63;;
38940;SDS011;43236;47.208;7.518;2023-04-06T06:20:41;13.57;;;5.90;;
38940;SDS011;43236;47.208;7.518;2023-04-06T06:23:28;10.70;;;5.88;;
38940;SDS011;43236;47.208;7.518;2023-04-06T06:26:17;11.35;;;5.65;;
38940;SDS011;43236;47.208;7.518;2023-04-06T06:29:06;11.50;;;5.68;;
38940;SDS011;43236;47.208;7.518;2023-04-06T06:31:53;13.75;;;5.95;;
38940;SDS011;43236;47.208;7.518;2023-04-06T06:34:40;12.75;;;6.38;;
38940;SDS011;43236;47.208;7.518;2023-04-06T06:37:27;11.38;;;6.28;;
38940;SDS011;43236;47.208;7.518;2023-04-06T06:40:14;10.98;;;5.97;;
38940;SDS011;43236;47.208;7.518;2023-04-06T06:43:04;15.65;;;6.10;;
38940;SDS011;43236;47.208;7.518;2023-04-06T06:45:51;12.52;;;5.88;;
38940;SDS011;43236;47.208;7.518;2023-04-06T06:48:38;11.18;;;5.75;;
38940;SDS011;43236;47.208;7.518;2023-04-06T06:51:25;10.80;;;5.40;;
38940;SDS011;43236;47.208;7.518;2023-04-06T06:54:13;14.00;;;5.25;;
38940;SDS011;43236;47.208;7.518;2023-04-06T06:57:00;13.20;;;6.15;;
38940;SDS011;43236;47.208;7.518;2023-04-06T06:59:48;18.20;;;7.30;;
38940;SDS011;43236;47.208;7.518;2023-04-06T07:02:35;14.15;;;6.40;;
38940;SDS011;43236;47.208;7.518;2023-04-06T07:05:22;14.25;;;6.55;;
38940;SDS011;43236;47.208;7.518;2023-04-06T07:08:10;10.60;;;5.10;;
38940;SDS011;43236;47.208;7.518;2023-04-06T07:10:57;13.05;;;5.85;;
38940;SDS011;43236;47.208;7.518;2023-04-06T07:13:44;12.65;;;5.32;;
38940;SDS011;43236;47.208;7.518;2023-04-06T07:16:33;11.20;;;5.90;;
38940;SDS011;43236;47.208;7.518;2023-04-06T07:19:20;12.85;;;5.30;;
38940;SDS011;43236;47.208;7.518;2023-04-06T07:22:07;9.18;;;5.90;;
38940;SDS011;43236;47.208;7.518;2023-04-06T07:24:54;10.88;;;5.35;;
38940;SDS011;43236;47.208;7.518;2023-04-06T07:27:41;9.93;;;4.93;;
38940;SDS011;43236;47.208;7.518;2023-04-06T07:30:28;12.93;;;5.10;;
38940;SDS011;43236;47.208;7.518;2023-04-06T07:33:17;12.45;;;6.07;;
38940;SDS011;43236;47.208;7.518;2023-04-06T07:36:04;11.07;;;5.20;;
38940;SDS011;43236;47.208;7.518;2023-04-06T07:38:51;10.15;;;5.25;;
38940;SDS011;43236;47.208;7.518;2023-04-06T07:41:38;11.85;;;5.07;;
38940;SDS011;43236;47.208;7.518;2023-04-06T07:44:26;11.95;;;5.20;;
38940;SDS011;43236;47.208;7.518;2023-04-06T07:47:13;11.20;;;5.10;;
38940;SDS011;43236;47.208;7.518;2023-04-06T07:50:01;11.82;;;5.47;;
38940;SDS011;43236;47.208;7.518;2023-04-06T07:52:49;10.63;;;5.35;;
38940;SDS011;43236;47.208;7.518;2023-04-06T07:55:36;9.25;;;4.80;;
38940;SDS011;43236;47.208;7.518;2023-04-06T07:58:23;17.77;;;5.10;;
38940;SDS011;43236;47.208;7.518;2023-04-06T08:01:11;9.27;;;5.20;;
38940;SDS011;43236;47.208;7.518;2023-04-06T08:03:58;10.73;;;5.45;;
38940;SDS011;43236;47.208;7.518;2023-04-06T08:06:48;14.18;;;5.70;;
38940;SDS011;43236;47.208;7.518;2023-04-06T08:09:35;15.23;;;5.28;;
38940;SDS011;43236;47.208;7.518;2023-04-06T08:12:23;10.68;;;4.85;;
38940;SDS011;43236;47.208;7.518;2023-04-06T08:15:10;13.43;;;5.63;;
38940;SDS011;43236;47.208;7.518;2023-04-06T08:17:57;8.80;;;5.22;;
38940;SDS011;43236;47.208;7.518;2023-04-06T08:20:44;10.27;;;5.15;;
38940;SDS011;43236;47.208;7.518;2023-04-06T08:23:33;11.68;;;5.13;;
38940;SDS011;43236;47.208;7.518;2023-04-06T08:26:20;12.45;;;5.53;;
38940;SDS011;43236;47.208;7.518;2023-04-06T08:29:07;12.70;;;5.07;;
38940;SDS011;43236;47.208;7.518;2023-04-06T08:31:55;11.82;;;5.43;;
38940;SDS011;43236;47.208;7.518;2023-04-06T08:34:42;13.30;;;5.55;;
38940;SDS011;43236;47.208;7.518;2023-04-06T08:37:29;9.95;;;5.18;;
38940;SDS011;43236;47.208;7.518;2023-04-06T08:40:17;15.63;;;4.72;;
38940;SDS011;43236;47.208;7.518;2023-04-06T08:43:06;13.20;;;4.57;;
38940;SDS011;43236;47.208;7.518;2023-04-06T08:45:56;11.65;;;5.25;;
38940;SDS011;43236;47.208;7.518;2023-04-06T08:48:45;11.02;;;4.60;;
38940;SDS011;43236;47.208;7.518;2023-04-06T08:51:36;11.38;;;4.53;;
38940;SDS011;43236;47.208;7.518;2023-04-06T08:54:23;11.65;;;5.30;;
38940;SDS011;43236;47.208;7.518;2023-04-06T08:57:12;10.95;;;5.10;;
38940;SDS011;43236;47.208;7.518;2023-04-06T08:59:59;11.13;;;5.32;;
38940;SDS011;43236;47.208;7.518;2023-04-06T09:02:49;10.70;;;5.45;;
38940;SDS011;43236;47.208;7.518;2023-04-06T09:05:36;10.07;;;5.75;;
38940;SDS011;43236;47.208;7.518;2023-04-06T09:08:25;9.18;;;5.20;;
38940;SDS011;43236;47.208;7.518;2023-04-06T09:11:14;14.02;;;5.28;;
38940;SDS011;43236;47.208;7.518;2023-04-06T09:14:03;12.38;;;5.68;;
38940;SDS011;43236;47.208;7.518;2023-04-06T09:16:50;13.23;;;5.15;;
38940;SDS011;43236;47.208;7.518;2023-04-06T09:19:44;13.80;;;4.78;;
38940;SDS011;43236;47.208;7.518;2023-04-06T09:25:23;10.38;;;5.03;;
38940;SDS011;43236;47.208;7.518;2023-04-06T09:28:11;14.77;;;5.75;;
38940;SDS011;43236;47.208;7.518;2023-04-06T09:31:00;13.52;;;5.25;;
38940;SDS011;43236;47.208;7.518;2023-04-06T09:33:47;9.50;;;4.90;;
38940;SDS011;43236;47.208;7.518;2023-04-06T09:36:35;12.98;;;4.97;;
38940;SDS011;43236;47.208;7.518;2023-04-06T09:39:23;10.68;;;5.05;;
38940;SDS011;43236;47.208;7.518;2023-04-06T09:42:11;9.70;;;4.63;;
38940;SDS011;43236;47.208;7.518;2023-04-06T09:45:09;14.75;;;6.13;;
38940;SDS011;43236;47.208;7.518;2023-04-06T09:47:58;13.38;;;5.63;;
38940;SDS011;43236;47.208;7.518;2023-04-06T09:50:46;10.57;;;4.78;;
38940;SDS011;43236;47.208;7.518;2023-04-06T09:53:34;11.35;;;5.53;;
38940;SDS011;43236;47.208;7.518;2023-04-06T09:56:24;12.40;;;5.20;;
38940;SDS011;43236;47.208;7.518;2023-04-06T09:59:17;15.32;;;5.75;;
38940;SDS011;43236;47.208;7.518;2023-04-06T10:02:08;12.30;;;5.05;;
38940;SDS011;43236;47.208;7.518;2023-04-06T10:07:53;10.20;;;5.57;;
38940;SDS011;43236;47.208;7.518;2023-04-06T10:10:42;10.80;;;5.78;;
38940;SDS011;43236;47.208;7.518;2023-04-06T10:13:29;10.60;;;5.50;;
38940;SDS011;43236;47.208;7.518;2023-04-06T10:16:17;13.00;;;5.47;;
38940;SDS011;43236;47.208;7.518;2023-04-06T10:19:05;12.18;;;5.57;;
38940;SDS011;43236;47.208;7.518;2023-04-06T10:21:59;12.15;;;5.43;;
38940;SDS011;43236;47.208;7.518;2023-04-06T10:24:49;9.93;;;5.57;;
38940;SDS011;43236;47.208;7.518;2023-04-06T10:27:37;10.80;;;5.63;;
38940;SDS011;43236;47.208;7.518;2023-04-06T10:30:24;11.38;;;5.43;;
38940;SDS011;43236;47.208;7.518;2023-04-06T10:33:14;12.43;;;5.03;;
38940;SDS011;43236;47.208;7.518;2023-04-06T10:36:11;11.52;;;5.22;;
38940;SDS011;43236;47.208;7.518;2023-04-06T10:39:00;10.98;;;4.97;;
38940;SDS011;43236;47.208;7.518;2023-04-06T10:41:49;11.52;;;4.65;;
38940;SDS011;43236;47.208;7.518;2023-04-06T10:44:41;11.55;;;4.97;;
38940;SDS011;43236;47.208;7.518;2023-04-06T10:47:28;11.27;;;5.15;;
38940;SDS011;43236;47.208;7.518;2023-04-06T10:50:26;11.50;;;5.50;;
38940;SDS011;43236;47.208;7.518;2023-04-06T10:53:20;12.10;;;5.05;;
38940;SDS011;43236;47.208;7.518;2023-04-06T10:56:10;10.55;;;5.25;;
38940;SDS011;43236;47.208;7.518;2023-04-06T10:58:58;9.63;;;5.20;;
38940;SDS011;43236;47.208;7.518;2023-04-06T11:01:46;10.55;;;5.10;;
38940;SDS011;43236;47.208;7.518;2023-04-06T11:04:33;9.98;;;4.35;;
38940;SDS011;43236;47.208;7.518;2023-04-06T11:07:22;11.20;;;4.95;;
38940;SDS011;43236;47.208;7.518;2023-04-06T11:10:10;11.43;;;4.57;;
38940;SDS011;43236;47.208;7.518;2023-04-06T11:12:58;9.20;;;4.25;;
38940;SDS011;43236;47.208;7.518;2023-04-06T11:15:46;10.57;;;5.25;;
38940;SDS011;43236;47.208;7.518;2023-04-06T11:18:34;8.70;;;4.60;;
38940;SDS011;43236;47.208;7.518;2023-04-06T11:21:31;10.60;;;5.20;;
38940;SDS011;43236;47.208;7.518;2023-04-06T11:24:21;9.45;;;4.97;;
38940;SDS011;43236;47.208;7.518;2023-04-06T11:27:08;11.00;;;4.85;;
38940;SDS011;43236;47.208;7.518;2023-04-06T11:29:57;11.52;;;4.80;;
38940;SDS011;43236;47.208;7.518;2023-04-06T11:32:45;11.60;;;4.82;;
38940;SDS011;43236;47.208;7.518;2023-04-06T11:35:33;14.13;;;4.60;;
38940;SDS011;43236;47.208;7.518;2023-04-06T11:38:21;10.27;;;4.55;;
38940;SDS011;43236;47.208;7.518;2023-04-06T11:41:08;9.15;;;4.22;;
38940;SDS011;43236;47.208;7.518;2023-04-06T11:43:55;9.15;;;4.70;;
38940;SDS011;43236;47.208;7.518;2023-04-06T11:46:52;11.32;;;4.63;;
38940;SDS011;43236;47.208;7.518;2023-04-06T11:49:40;9.35;;;4.88;;
38940;SDS011;43236;47.208;7.518;2023-04-06T11:52:28;13.00;;;5.03;;
38940;SDS011;43236;47.208;7.518;2023-04-06T11:55:16;12.18;;;5.03;;
38940;SDS011;43236;47.208;7.518;2023-04-06T11:58:05;12.82;;;4.28;;
38940;SDS011;43236;47.208;7.518;2023-04-06T12:00:52;10.93;;;5.22;;
38940;SDS011;43236;47.208;7.518;2023-04-06T12:03:44;12.38;;;5.00;;
38940;SDS011;43236;47.208;7.518;2023-04-06T12:06:31;12.70;;;4.63;;
38940;SDS011;43236;47.208;7.518;2023-04-06T12:09:18;9.52;;;4.60;;
38940;SDS011;43236;47.208;7.518;2023-04-06T12:12:05;10.75;;;4.93;;
38940;SDS011;43236;47.208;7.518;2023-04-06T12:14:52;14.68;;;5.38;;
38940;SDS011;43236;47.208;7.518;2023-04-06T12:17:40;9.80;;;5.07;;
38940;SDS011;43236;47.208;7.518;2023-04-06T12:20:28;11.75;;;5.35;;
38940;SDS011;43236;47.208;7.518;2023-04-06T12:23:15;10.85;;;5.18;;
38940;SDS011;43236;47.208;7.518;2023-04-06T12:26:03;12.18;;;4.95;;
38940;SDS011;43236;47.208;7.518;2023-04-06T12:28:50;10.90;;;4.40;;
38940;SDS011;43236;47.208;7.518;2023-04-06T12:31:37;9.60;;;4.75;;
38940;SDS011;43236;47.208;7.518;2023-04-06T12:34:26;13.68;;;5.72;;
38940;SDS011;43236;47.208;7.518;2023-04-06T12:37:14;12.05;;;5.10;;
38940;SDS011;43236;47.208;7.518;2023-04-06T12:40:01;11.82;;;5.13;;
38940;SDS011;43236;47.208;7.518;2023-04-06T12:42:49;13.30;;;5.18;;
38940;SDS011;43236;47.208;7.518;2023-04-06T12:45:36;9.20;;;4.25;;
38940;SDS011;43236;47.208;7.518;2023-04-06T12:48:23;10.43;;;4.85;;
38940;SDS011;43236;47.208;7.518;2023-04-06T12:51:11;11.50;;;5.35;;
38940;SDS011;43236;47.208;7.518;2023-04-06T12:53:59;11.07;;;4.57;;
38940;SDS011;43236;47.208;7.518;2023-04-06T12:56:47;13.38;;;5.18;;
38940;SDS011;43236;47.208;7.518;2023-04-06T12:59:34;11.65;;;4.45;;
38940;SDS011;43236;47.208;7.518;2023-04-06T13:02:22;10.65;;;4.50;;
38940;SDS011;43236;47.208;7.518;2023-04-06T13:05:09;12.27;;;4.90;;
38940;SDS011;43236;47.208;7.518;2023-04-06T13:07:56;10.98;;;4.82;;
38940;SDS011;43236;47.208;7.518;2023-04-06T13:10:46;17.05;;;4.70;;
38940;SDS011;43236;47.208;7.518;2023-04-06T13:13:34;10.57;;;4.10;;
38940;SDS011;43236;47.208;7.518;2023-04-06T13:16:21;11.45;;;4.40;;
38940;SDS011;43236;47.208;7.518;2023-04-06T13:19:08;8.73;;;4.13;;
38940;SDS011;43236;47.208;7.518;2023-04-06T13:21:56;12.90;;;4.63;;
38940;SDS011;43236;47.208;7.518;2023-04-06T13:24:44;11.65;;;4.82;;
38940;SDS011;43236;47.208;7.518;2023-04-06T13:27:33;8.38;;;3.80;;
38940;SDS011;43236;47.208;7.518;2023-04-06T13:30:21;9.00;;;4.25;;
38940;SDS011;43236;47.208;7.518;2023-04-06T13:33:08;10.00;;;4.88;;
38940;SDS011;43236;47.208;7.518;2023-04-06T13:35:55;11.93;;;4.63;;
38940;SDS011;43236;47.208;7.518;2023-04-06T13:38:43;10.77;;;4.20;;
38940;SDS011;43236;47.208;7.518;2023-04-06T13:41:32;10.18;;;4.20;;
38940;SDS011;43236;47.208;7.518;2023-04-06T13:44:20;12.82;;;4.18;;
38940;SDS011;43236;47.208;7.518;2023-04-06T13:47:07;10.15;;;3.65;;
38940;SDS011;43236;47.208;7.518;2023-04-06T13:49:54;9.65;;;3.97;;
38940;SDS011;43236;47.208;7.518;2023-04-06T13:52:42;7.85;;;3.33;;
38940;SDS011;43236;47.208;7.518;2023-04-06T13:55:29;9.20;;;3.58;;
38940;SDS011;43236;47.208;7.518;2023-04-06T13:58:16;13.45;;;4.68;;
38940;SDS011;43236;47.208;7.518;2023-04-06T14:01:05;10.25;;;3.83;;
38940;SDS011;43236;47.208;7.518;2023-04-06T14:03:54;13.45;;;4.28;;
38940;SDS011;43236;47.208;7.518;2023-04-06T14:06:41;11.88;;;3.90;;
38940;SDS011;43236;47.208;7.518;2023-04-06T14:09:31;10.50;;;3.67;;
38940;SDS011;43236;47.208;7.518;2023-04-06T14:12:18;9.50;;;3.75;;
38940;SDS011;43236;47.208;7.518;2023-04-06T14:15:05;13.23;;;4.05;;
38940;SDS011;43236;47.208;7.518;2023-04-06T14:17:54;12.20;;;5.00;;
38940;SDS011;43236;47.208;7.518;2023-04-06T14:20:41;12.25;;;4.03;;
38940;SDS011;43236;47.208;7.518;2023-04-06T14:23:29;8.38;;;3.58;;
38940;SDS011;43236;47.208;7.518;2023-04-06T14:26:17;15.70;;;4.68;;
38940;SDS011;43236;47.208;7.518;2023-04-06T14:29:05;8.65;;;3.63;;
38940;SDS011;43236;47.208;7.518;2023-04-06T14:31:52;11.25;;;3.83;;
38940;SDS011;43236;47.208;7.518;2023-04-06T14:34:46;8.82;;;3.55;;
38940;SDS011;43236;47.208;7.518;2023-04-06T14:37:33;9.05;;;3.60;;
38940;SDS011;43236;47.208;7.518;2023-04-06T14:40:20;8.98;;;3.67;;
38940;SDS011;43236;47.208;7.518;2023-04-06T14:43:07;10.57;;;4.13;;
38940;SDS011;43236;47.208;7.518;2023-04-06T14:45:54;10.30;;;4.05;;
38940;SDS011;43236;47.208;7.518;2023-04-06T14:48:46;9.48;;;3.70;;
38940;SDS011;43236;47.208;7.518;2023-04-06T14:51:34;9.75;;;3.58;;
38940;SDS011;43236;47.208;7.518;2023-04-06T14:54:21;9.23;;;3.40;;
38940;SDS011;43236;47.208;7.518;2023-04-06T14:57:08;8.90;;;3.97;;
38940;SDS011;43236;47.208;7.518;2023-04-06T14:59:55;7.53;;;3.50;;
38940;SDS011;43236;47.208;7.518;2023-04-06T15:02:42;7.88;;;3.75;;
38940;SDS011;43236;47.208;7.518;2023-04-06T15:05:29;9.10;;;3.88;;
38940;SDS011;43236;47.208;7.518;2023-04-06T15:08:18;9.13;;;3.72;;
38940;SDS011;43236;47.208;7.518;2023-04-06T15:11:06;8.30;;;3.67;;
38940;SDS011;43236;47.208;7.518;2023-04-06T15:13:53;9.90;;;3.65;;
38940;SDS011;43236;47.208;7.518;2023-04-06T15:16:40;7.97;;;3.90;;
38940;SDS011;43236;47.208;7.518;2023-04-06T15:19:27;8.68;;;3.75;;
38940;SDS011;43236;47.208;7.518;2023-04-06T15:22:15;8.95;;;4.03;;
38940;SDS011;43236;47.208;7.518;2023-04-06T15:25:04;10.13;;;3.88;;
38940;SDS011;43236;47.208;7.518;2023-04-06T15:27:51;8.82;;;3.75;;
38940;SDS011;43236;47.208;7.518;2023-04-06T15:30:39;7.57;;;3.80;;
38940;SDS011;43236;47.208;7.518;2023-04-06T15:33:27;9.65;;;3.88;;
38940;SDS011;43236;47.208;7.518;2023-04-06T15:36:19;9.27;;;4.07;;
38940;SDS011;43236;47.208;7.518;2023-04-06T15:39:09;9.02;;;3.45;;
38940;SDS011;43236;47.208;7.518;2023-04-06T15:41:59;9.07;;;4.10;;
38940;SDS011;43236;47.208;7.518;2023-04-06T15:44:46;8.18;;;3.65;;
38940;SDS011;43236;47.208;7.518;2023-04-06T15:47:33;12.48;;;3.78;;
38940;SDS011;43236;47.208;7.518;2023-04-06T15:50:20;6.78;;;3.65;;
38940;SDS011;43236;47.208;7.518;2023-04-06T15:53:07;7.53;;;3.38;;
38940;SDS011;43236;47.208;7.518;2023-04-06T15:55:57;7.90;;;3.70;;
38940;SDS011;43236;47.208;7.518;2023-04-06T15:58:47;8.45;;;3.42;;
38940;SDS011;43236;47.208;7.518;2023-04-06T16:01:34;7.68;;;3.17;;
38940;SDS011;43236;47.208;7.518;2023-04-06T16:04:21;24.27;;;12.13;;
38940;SDS011;43236;47.208;7.518;2023-04-06T16:07:08;11.75;;;5.63;;
38940;SDS011;43236;47.208;7.518;2023-04-06T16:09:55;11.13;;;5.60;;
38940;SDS011;43236;47.208;7.518;2023-04-06T16:12:42;8.63;;;3.58;;
38940;SDS011;43236;47.208;7.518;2023-04-06T16:15:31;7.72;;;3.75;;
38940;SDS011;43236;47.208;7.518;2023-04-06T16:18:18;7.00;;;3.00;;
38940;SDS011;43236;47.208;7.518;2023-04-06T16:21:05;7.10;;;3.13;;
38940;SDS011;43236;47.208;7.518;2023-04-06T16:23:52;7.47;;;3.70;;
38940;SDS011;43236;47.208;7.518;2023-04-06T16:26:39;7.40;;;3.30;;
38940;SDS011;43236;47.208;7.518;2023-04-06T16:29:28;11.15;;;3.92;;
38940;SDS011;43236;47.208;7.518;2023-04-06T16:32:17;8.13;;;3.42;;
38940;SDS011;43236;47.208;7.518;2023-04-06T16:35:04;7.28;;;3.30;;
38940;SDS011;43236;47.208;7.518;2023-04-06T16:37:52;10.77;;;4.03;;
38940;SDS011;43236;47.208;7.518;2023-04-06T16:40:39;10.10;;;3.55;;
38940;SDS011;43236;47.208;7.518;2023-04-06T16:43:26;9.20;;;3.80;;
38940;SDS011;43236;47.208;7.518;2023-04-06T16:46:13;7.72;;;2.97;;